Time;durP1;ratioP1;P1;durP2;ratioP2;P2;SDS_P1;SDS_P2;PMS_P1;PMS_P2;Temp;Humidity;BMP_temperature;BMP_pressure;BME280_temperature;BME280_humidity;BME280_pressure;Samples;Min_cycle;Max_cycle;Signal;HPM_P1;HPM_P2
2021/08/29 00:01:21;;;;;;;6.63;5.28;;;;;;;15.07;100.00;100532.28;6222326;23;20135;-80
2021/08/29 00:03:48;;;;;;;6.75;5.63;;;;;;;15.05;100.00;100531.53;6222591;23;20048;-81
2021/08/29 00:06:16;;;;;;;7.28;6.30;;;;;;;15.06;100.00;100527.91;6221899;23;20647;-81
2021/08/29 00:08:43;;;;;;;5.70;4.97;;;;;;;15.06;100.00;100527.03;6222902;23;20026;-80
2021/08/29 00:11:09;;;;;;;5.68;4.97;;;;;;;15.00;100.00;100524.75;6222657;23;20035;-81
2021/08/29 00:13:36;;;;;;;9.13;6.43;;;;;;;14.98;100.00;100522.19;6221612;23;20399;-81
2021/08/29 00:16:03;;;;;;;6.85;5.35;;;;;;;14.98;100.00;100518.66;6222025;23;20020;-81
2021/08/29 00:18:30;;;;;;;7.82;5.82;;;;;;;14.99;100.00;100515.91;6196030;23;20032;-81
2021/08/29 00:20:57;;;;;;;8.25;5.45;;;;;;;14.99;100.00;100512.38;6195017;23;20016;-81
2021/08/29 00:23:23;;;;;;;6.47;5.68;;;;;;;14.99;100.00;100517.72;6222332;23;20032;-81
2021/08/29 00:25:51;;;;;;;8.38;6.30;;;;;;;14.98;100.00;100514.19;6196247;23;20059;-81
2021/08/29 00:28:20;;;;;;;9.45;6.22;;;;;;;14.98;100.00;100521.31;6222186;23;20020;-81
2021/08/29 00:30:46;;;;;;;6.82;6.05;;;;;;;14.95;100.00;100519.69;6221987;23;20104;-81
2021/08/29 00:33:13;;;;;;;7.60;6.22;;;;;;;14.96;100.00;100518.75;6220920;22;20774;-81
2021/08/29 00:35:39;;;;;;;6.55;5.68;;;;;;;14.96;100.00;100513.41;6222000;23;20115;-81
2021/08/29 00:38:06;;;;;;;6.78;6.00;;;;;;;14.95;100.00;100513.53;6222169;23;20724;-81
2021/08/29 00:40:33;;;;;;;8.77;5.90;;;;;;;14.93;100.00;100508.31;6222295;23;20107;-81
2021/08/29 00:43:00;;;;;;;7.78;6.05;;;;;;;14.94;100.00;100509.16;6223309;23;20024;-81
2021/08/29 00:45:27;;;;;;;7.22;6.00;;;;;;;14.88;100.00;100501.53;6225956;23;20016;-80
2021/08/29 00:47:54;;;;;;;7.72;6.00;;;;;;;14.85;100.00;100493.72;6228311;23;20021;-81
2021/08/29 00:50:21;;;;;;;6.70;5.80;;;;;;;14.82;100.00;100502.75;6240122;23;20128;-80
2021/08/29 00:52:47;;;;;;;6.40;5.70;;;;;;;14.78;100.00;100497.75;6238811;23;20031;-80
2021/08/29 00:55:14;;;;;;;8.10;5.90;;;;;;;14.78;100.00;100495.94;6232848;23;20116;-81
2021/08/29 00:57:42;;;;;;;7.28;5.90;;;;;;;14.76;100.00;100491.66;6230303;23;20353;-81
2021/08/29 01:00:10;;;;;;;6.38;5.63;;;;;;;14.73;100.00;100482.88;6229875;23;20020;-80
2021/08/29 01:02:39;;;;;;;7.70;5.82;;;;;;;14.73;100.00;100482.03;6228228;23;20024;-80
2021/08/29 01:05:11;;;;;;;7.03;5.95;;;;;;;14.71;100.00;100481.25;6225821;23;20057;-81
2021/08/29 01:07:56;;;;;;;7.50;6.55;;;;;;;14.72;100.00;100478.50;6226344;23;20052;-80
2021/08/29 01:10:56;;;;;;;7.28;5.85;;;;;;;14.71;100.00;100479.47;6224590;23;20016;-81
2021/08/29 01:13:44;;;;;;;7.68;6.30;;;;;;;14.72;100.00;100482.97;6209626;23;20040;-79
2021/08/29 01:16:18;;;;;;;7.78;6.22;;;;;;;14.71;100.00;100476.78;6203600;23;20056;-79
2021/08/29 01:18:52;;;;;;;8.10;6.38;;;;;;;14.73;100.00;100477.56;6234314;23;20028;-79
2021/08/29 01:21:21;;;;;;;6.63;5.65;;;;;;;14.74;100.00;100475.75;6228942;23;20103;-80
2021/08/29 01:23:54;;;;;;;5.75;4.85;;;;;;;14.72;100.00;100478.50;6195577;23;20017;-81
2021/08/29 01:26:30;;;;;;;6.63;5.45;;;;;;;14.71;100.00;100481.25;6220173;23;20028;-81
2021/08/29 01:29:08;;;;;;;6.32;5.70;;;;;;;14.69;100.00;100484.03;6222410;23;20076;-81
2021/08/29 01:31:36;;;;;;;7.50;5.65;;;;;;;14.69;100.00;100475.16;6192439;23;20062;-80
2021/08/29 01:34:12;;;;;;;7.82;5.72;;;;;;;14.68;100.00;100479.66;6217384;23;20021;-80
2021/08/29 01:36:41;;;;;;;6.20;5.57;;;;;;;14.70;100.00;100479.56;6218811;23;20016;-81
2021/08/29 01:39:09;;;;;;;8.48;6.05;;;;;;;14.67;100.00;100477.94;6218551;23;20017;-81
2021/08/29 01:41:38;;;;;;;6.85;6.07;;;;;;;14.67;100.00;100479.75;6220496;23;20063;-81
2021/08/29 01:44:06;;;;;;;7.47;6.00;;;;;;;14.68;100.00;100478.78;6220789;23;20059;-81
2021/08/29 01:46:35;;;;;;;6.45;5.25;;;;;;;14.66;100.00;100475.34;6220227;23;20027;-81
2021/08/29 01:49:03;;;;;;;7.00;5.35;;;;;;;14.66;100.00;100470.88;6218368;23;20020;-81
2021/08/29 01:51:30;;;;;;;6.28;5.45;;;;;;;14.68;100.00;100476.13;6221278;23;20033;-81
2021/08/29 01:53:57;;;;;;;5.38;4.88;;;;;;;14.68;100.00;100474.31;6221349;23;20017;-81
2021/08/29 01:56:23;;;;;;;6.93;4.88;;;;;;;14.69;100.00;100472.50;6221704;23;20058;-81
2021/08/29 01:58:50;;;;;;;5.72;5.05;;;;;;;14.70;100.00;100471.56;6219781;23;20023;-82
2021/08/29 02:01:17;;;;;;;5.63;4.80;;;;;;;14.69;100.00;100476.03;6221303;23;20044;-81
2021/08/29 02:03:45;;;;;;;5.78;4.82;;;;;;;14.66;100.00;100475.34;6194632;23;20046;-81
2021/08/29 02:06:28;;;;;;;6.60;5.50;;;;;;;14.69;100.00;100472.50;6222265;23;20021;-81
2021/08/29 02:09:06;;;;;;;6.57;5.00;;;;;;;14.66;100.00;100470.88;6227379;23;20653;-81
2021/08/29 02:11:37;;;;;;;5.68;5.07;;;;;;;14.70;100.00;100476.88;6196652;23;20592;-81
2021/08/29 02:14:08;;;;;;;7.65;5.15;;;;;;;14.69;100.00;100477.84;6224592;23;20103;-81
2021/08/29 02:16:40;;;;;;;7.53;5.50;;;;;;;14.68;100.00;100463.66;6223744;23;20103;-81
2021/08/29 02:19:07;;;;;;;8.25;5.20;;;;;;;14.67;100.00;100469.94;6196780;23;20020;-80
2021/08/29 02:21:35;;;;;;;6.57;5.20;;;;;;;14.66;100.00;100468.22;6223016;23;20055;-80
2021/08/29 02:24:03;;;;;;;7.30;5.15;;;;;;;14.67;100.00;100469.06;6222692;23;20107;-81
2021/08/29 02:26:30;;;;;;;5.88;5.28;;;;;;;14.66;100.00;100457.56;6223019;23;20068;-81
2021/08/29 02:28:58;;;;;;;5.53;4.90;;;;;;;14.68;100.00;100465.47;6222895;23;20040;-81
2021/08/29 02:31:25;;;;;;;6.78;4.93;;;;;;;14.67;100.00;100469.94;6222629;23;20063;-81
2021/08/29 02:33:52;;;;;;;5.88;4.85;;;;;;;14.68;100.00;100471.66;6221946;23;20096;-83
2021/08/29 02:36:19;;;;;;;5.13;4.45;;;;;;;14.68;100.00;100468.13;6222902;23;20035;-81
2021/08/29 02:38:49;;;;;;;6.00;4.80;;;;;;;14.68;100.00;100468.13;6223209;23;20021;-81
2021/08/29 02:41:17;;;;;;;5.90;4.88;;;;;;;14.68;100.00;100460.13;6194919;23;20027;-81
2021/08/29 02:43:46;;;;;;;5.28;4.75;;;;;;;14.66;100.00;100465.56;6221090;23;20019;-81
2021/08/29 02:46:13;;;;;;;6.18;5.10;;;;;;;14.69;100.00;100470.69;6197852;23;20103;-81
2021/08/29 02:48:44;;;;;;;5.88;4.95;;;;;;;14.69;100.00;100462.69;6222759;23;20401;-81
2021/08/29 02:51:14;;;;;;;5.72;4.63;;;;;;;14.69;100.00;100470.69;6197747;23;20028;-81
2021/08/29 02:53:41;;;;;;;;;;;;;;;14.70;100.00;100468.88;6221280;23;20052;-81
2021/08/29 02:56:08;;;;;;;4.18;3.78;;;;;;;14.64;100.00;100458.59;6221691;23;19916;-80
2021/08/29 02:58:36;;;;;;;5.35;4.30;;;;;;;14.64;100.00;100455.94;6221490;23;20063;-81
2021/08/29 03:01:03;;;;;;;5.85;4.78;;;;;;;14.63;100.00;100457.78;6222336;23;20080;-81
2021/08/29 03:03:30;;;;;;;4.97;4.47;;;;;;;14.65;100.00;100455.84;6222799;23;20020;-81
2021/08/29 03:05:57;;;;;;;5.45;4.80;;;;;;;14.64;100.00;100462.13;6223988;23;20090;-81
2021/08/29 03:08:24;;;;;;;7.43;4.75;;;;;;;14.65;100.00;100462.97;6223831;23;20227;-81
2021/08/29 03:10:52;;;;;;;6.20;4.50;;;;;;;14.61;100.00;100457.00;6223251;23;20024;-81
2021/08/29 03:13:19;;;;;;;6.00;4.50;;;;;;;14.61;100.00;100453.50;6225684;23;20095;-81
2021/08/29 03:15:46;;;;;;;4.30;3.88;;;;;;;14.57;100.00;100457.28;6197709;23;20081;-81
2021/08/29 03:18:13;;;;;;;4.82;4.13;;;;;;;14.58;100.00;100464.34;6228971;23;20040;-79
2021/08/29 03:20:42;;;;;;;4.10;3.70;;;;;;;14.56;100.00;100453.75;6204616;23;20764;-80
2021/08/29 03:23:09;;;;;;;4.47;3.92;;;;;;;14.58;100.00;100459.00;6230183;23;20048;-80
2021/08/29 03:25:36;;;;;;;5.05;3.97;;;;;;;14.59;100.00;100448.25;6225610;23;20017;-79
2021/08/29 03:28:03;;;;;;;5.03;3.33;;;;;;;14.61;100.00;100448.16;6224193;23;20502;-80
2021/08/29 03:30:30;;;;;;;4.03;3.63;;;;;;;14.60;100.00;100452.63;6223664;23;20583;-80
2021/08/29 03:33:02;;;;;;;4.57;3.03;;;;;;;14.58;100.00;100445.69;6211555;23;20036;-80
2021/08/29 03:35:31;;;;;;;3.28;2.72;;;;;;;14.55;100.00;100444.06;6232976;23;20021;-80
2021/08/29 03:37:58;;;;;;;3.83;3.10;;;;;;;14.56;100.00;100439.59;6230935;23;20116;-80
2021/08/29 03:40:26;;;;;;;2.20;2.00;;;;;;;14.55;100.00;100449.38;6231524;23;20044;-80
2021/08/29 03:42:54;;;;;;;2.47;2.28;;;;;;;14.49;100.00;100446.22;6229582;23;20450;-80
2021/08/29 03:45:21;;;;;;;2.45;2.17;;;;;;;14.46;100.00;100444.66;6224732;23;20024;-81
2021/08/29 03:47:48;;;;;;;2.28;2.08;;;;;;;14.46;100.00;100443.78;6222942;23;20438;-81
2021/08/29 03:50:15;;;;;;;2.83;2.00;;;;;;;14.46;100.00;100443.78;6221480;23;20716;-81
2021/08/29 03:52:42;;;;;;;2.75;2.17;;;;;;;14.44;100.00;100440.34;6221471;23;20023;-81
2021/08/29 03:55:09;;;;;;;2.58;2.20;;;;;;;14.46;100.00;100439.31;6220903;23;20059;-81
2021/08/29 03:57:37;;;;;;;2.88;2.20;;;;;;;14.46;100.00;100441.13;6222578;23;20013;-81
2021/08/29 04:00:06;;;;;;;2.60;2.20;;;;;;;14.45;100.00;100439.41;6222546;23;20104;-81
2021/08/29 04:02:33;;;;;;;2.75;2.45;;;;;;;14.44;100.00;100435.88;6221103;23;20095;-81
2021/08/29 04:05:00;;;;;;;2.50;2.00;;;;;;;14.44;100.00;100446.53;6221572;23;20502;-81
2021/08/29 04:07:27;;;;;;;2.78;2.40;;;;;;;14.36;100.00;100432.78;6221719;23;20464;-81
2021/08/29 04:09:55;;;;;;;2.70;2.50;;;;;;;14.36;100.00;100432.78;6220210;23;20020;-80
2021/08/29 04:12:27;;;;;;;2.28;2.08;;;;;;;14.38;100.00;100436.22;6220664;23;20047;-81
2021/08/29 04:14:56;;;;;;;2.38;2.17;;;;;;;14.37;100.00;100435.38;6224967;23;20028;-81
2021/08/29 04:17:24;;;;;;;2.50;2.15;;;;;;;14.38;100.00;100434.41;6221715;23;20134;-81
2021/08/29 04:19:52;;;;;;;4.00;2.17;;;;;;;14.39;100.00;100438.78;6222225;23;20080;-81
2021/08/29 04:22:21;;;;;;;1.90;1.70;;;;;;;14.36;100.00;100432.78;6224757;23;20052;-81
2021/08/29 04:24:48;;;;;;;2.40;2.20;;;;;;;14.37;100.00;100430.03;6226055;23;20133;-80
2021/08/29 04:27:14;;;;;;;2.38;2.17;;;;;;;14.39;100.00;100435.28;6226512;23;20110;-80
2021/08/29 04:29:41;;;;;;;2.53;1.83;;;;;;;14.39;100.00;100430.81;6225176;23;20100;-80
2021/08/29 04:32:10;;;;;;;3.67;2.20;;;;;;;14.41;100.00;100430.75;6218081;23;20116;-80
2021/08/29 04:34:38;;;;;;;2.03;1.88;;;;;;;14.41;100.00;100430.75;6218650;23;20016;-80
2021/08/29 04:37:07;;;;;;;2.03;1.88;;;;;;;14.41;100.00;100427.22;6230619;23;20071;-80
2021/08/29 04:39:36;;;;;;;2.30;2.10;;;;;;;14.42;100.00;100431.59;6227948;23;20781;-80
2021/08/29 04:42:04;;;;;;;2.08;1.88;;;;;;;14.41;100.00;100432.53;6204314;23;20099;-79
2021/08/29 04:44:30;;;;;;;3.95;2.10;;;;;;;14.43;100.00;100433.31;6225743;23;20435;-81
2021/08/29 04:46:57;;;;;;;1.70;1.60;;;;;;;14.39;100.00;100429.94;6221065;23;20016;-81
2021/08/29 04:49:23;;;;;;;1.95;1.85;;;;;;;14.43;100.00;100436.84;6220332;23;20027;-80
2021/08/29 04:51:50;;;;;;;2.42;1.83;;;;;;;14.43;100.00;100433.31;6220089;23;20334;-81
2021/08/29 04:54:17;;;;;;;2.20;2.00;;;;;;;14.42;100.00;100431.59;6220335;23;20023;-80
2021/08/29 04:56:43;;;;;;;2.60;1.60;;;;;;;14.41;100.00;100432.53;6219063;23;20021;-81
2021/08/29 04:59:10;;;;;;;1.80;1.70;;;;;;;14.42;100.00;100435.13;6221270;23;20024;-81
2021/08/29 05:01:36;;;;;;;1.20;1.15;;;;;;;14.41;100.00;100436.06;6219604;23;20044;-81
2021/08/29 05:04:03;;;;;;;1.70;1.60;;;;;;;14.38;100.00;100441.56;6219755;23;20023;-81
2021/08/29 05:06:30;;;;;;;2.67;2.20;;;;;;;14.37;100.00;100445.16;6218476;23;20013;-81
2021/08/29 05:08:56;;;;;;;1.60;1.33;;;;;;;14.36;100.00;100443.44;6219006;23;20035;-81
2021/08/29 05:11:24;;;;;;;2.30;1.60;;;;;;;14.34;100.00;100446.19;6218981;23;20087;-80
2021/08/29 05:13:50;;;;;;;2.00;1.90;;;;;;;14.37;100.00;100437.16;6227423;23;20076;-80
2021/08/29 05:16:17;;;;;;;2.08;1.83;;;;;;;14.39;100.00;100444.13;6229586;23;20048;-80
2021/08/29 05:18:44;;;;;;;2.00;1.80;;;;;;;14.43;100.00;100443.97;6230690;23;20099;-80
2021/08/29 05:21:10;;;;;;;1.73;1.63;;;;;;;14.43;100.00;100438.66;6231070;23;20048;-79
2021/08/29 05:23:37;;;;;;;1.75;1.65;;;;;;;14.40;100.00;100437.03;6233431;23;20072;-80
2021/08/29 05:26:03;;;;;;;1.67;1.50;;;;;;;14.43;100.00;100441.31;6237659;23;20024;-80
2021/08/29 05:28:30;;;;;;;2.40;1.35;;;;;;;14.42;100.00;100448.44;6239394;23;20055;-80
2021/08/29 05:30:57;;;;;;;1.95;1.23;;;;;;;14.44;100.00;100437.69;6237693;23;20040;-81
2021/08/29 05:33:23;;;;;;;2.55;1.35;;;;;;;14.42;100.00;100440.44;6224412;23;20024;-82
2021/08/29 05:35:50;;;;;;;1.40;1.30;;;;;;;14.41;100.00;100437.88;6222111;23;20437;-82
2021/08/29 05:38:17;;;;;;;2.58;1.20;;;;;;;14.42;100.00;100443.13;6222695;23;20023;-83
2021/08/29 05:40:43;;;;;;;1.40;1.30;;;;;;;14.42;100.00;100444.91;6222361;23;20365;-82
2021/08/29 05:43:10;;;;;;;1.50;1.40;;;;;;;14.46;100.00;100451.78;6222593;23;20103;-82
2021/08/29 05:45:36;;;;;;;1.20;1.10;;;;;;;14.47;100.00;100454.34;6221695;23;20039;-82
2021/08/29 05:48:03;;;;;;;1.27;1.00;;;;;;;14.52;100.00;100454.03;6222154;23;20029;-82
2021/08/29 05:50:30;;;;;;;2.15;1.30;;;;;;;14.57;100.00;100446.63;6223108;23;20055;-82
2021/08/29 05:52:57;;;;;;;1.30;1.20;;;;;;;14.60;100.00;100452.63;6228001;23;20021;-80
2021/08/29 05:55:23;;;;;;;1.63;1.52;;;;;;;14.62;100.00;100457.88;6228684;23;20027;-82
2021/08/29 05:57:51;;;;;;;3.17;1.70;;;;;;;14.63;100.00;100451.59;6238403;23;20055;-80
2021/08/29 06:00:19;;;;;;;2.22;1.60;;;;;;;14.65;100.00;100450.50;6243031;23;20055;-80
2021/08/29 06:02:46;;;;;;;2.30;1.33;;;;;;;14.66;100.00;100452.22;6242370;23;20016;-80
2021/08/29 06:05:13;;;;;;;2.72;1.50;;;;;;;14.66;100.00;100451.38;6238621;23;20427;-82
2021/08/29 06:07:40;;;;;;;3.25;1.52;;;;;;;14.69;100.00;100452.03;6222435;23;20457;-81
2021/08/29 06:10:06;;;;;;;1.52;1.40;;;;;;;14.66;100.00;100451.38;6222274;23;20344;-82
2021/08/29 06:12:34;;;;;;;1.50;1.40;;;;;;;14.68;100.00;100445.00;6222919;23;20096;-81
2021/08/29 06:15:01;;;;;;;1.67;1.58;;;;;;;14.72;100.00;100445.66;6222635;23;20047;-81
2021/08/29 06:17:29;;;;;;;3.05;1.60;;;;;;;14.75;100.00;100448.13;6195402;23;20016;-82
2021/08/29 06:19:57;;;;;;;1.27;1.17;;;;;;;14.74;100.00;100449.09;6196301;23;20055;-82
2021/08/29 06:22:24;;;;;;;1.75;1.38;;;;;;;14.69;100.00;100452.03;6196009;23;20111;-82
2021/08/29 06:24:50;;;;;;;1.55;1.45;;;;;;;14.68;100.00;100444.13;6196600;23;20031;-81
2021/08/29 06:27:18;;;;;;;2.75;1.60;;;;;;;14.72;100.00;100445.66;6228911;23;20021;-81
2021/08/29 06:29:44;;;;;;;1.63;1.52;;;;;;;14.78;100.00;100444.44;6237832;23;20035;-80
2021/08/29 06:32:14;;;;;;;1.60;1.50;;;;;;;14.79;100.00;100441.66;6237034;23;20415;-80
2021/08/29 06:34:41;;;;;;;2.38;1.60;;;;;;;14.81;100.00;100442.41;6236511;23;20077;-79
2021/08/29 06:37:08;;;;;;;1.38;1.27;;;;;;;14.82;100.00;100444.13;6232541;23;20494;-79
2021/08/29 06:39:34;;;;;;;1.77;1.50;;;;;;;14.82;100.00;100440.59;6237534;23;20025;-81
2021/08/29 06:42:03;;;;;;;2.75;1.40;;;;;;;14.82;100.00;100440.59;6243196;23;20047;-81
2021/08/29 06:44:29;;;;;;;1.80;1.20;;;;;;;14.81;100.00;100433.53;6235763;23;20025;-78
2021/08/29 06:46:56;;;;;;;1.38;1.27;;;;;;;14.83;100.00;100443.16;6199867;23;20510;-79
2021/08/29 06:49:24;;;;;;;1.65;1.08;;;;;;;14.83;100.00;100435.16;6221637;23;20051;-83
2021/08/29 06:51:50;;;;;;;1.13;1.02;;;;;;;14.83;100.00;100440.50;6195240;23;20030;-82
2021/08/29 06:54:17;;;;;;;1.30;1.20;;;;;;;14.82;100.00;100441.44;6195477;23;20264;-83
2021/08/29 06:56:43;;;;;;;1.13;1.05;;;;;;;14.82;100.00;100438.78;6220617;23;20028;-81
2021/08/29 06:59:10;;;;;;;1.02;0.93;;;;;;;14.81;100.00;100446.88;6220145;23;20103;-81
2021/08/29 07:01:37;;;;;;;1.65;1.05;;;;;;;14.81;100.00;100444.22;6219919;23;20095;-80
2021/08/29 07:04:04;;;;;;;1.40;0.90;;;;;;;14.81;100.00;100439.72;6219618;23;20466;-80
2021/08/29 07:06:30;;;;;;;0.70;0.70;;;;;;;14.82;100.00;100436.13;6219320;23;20025;-81
2021/08/29 07:08:57;;;;;;;0.60;0.60;;;;;;;14.81;100.00;100438.88;6220960;23;20027;-80
2021/08/29 07:11:24;;;;;;;0.80;0.80;;;;;;;14.81;100.00;100445.06;6219506;23;20016;-81
2021/08/29 07:13:50;;;;;;;0.70;0.70;;;;;;;14.81;100.00;100450.41;6219417;23;20023;-80
2021/08/29 07:16:17;;;;;;;0.80;0.80;;;;;;;14.83;100.00;100444.97;6222264;23;20024;-82
2021/08/29 07:18:44;;;;;;;1.08;0.95;;;;;;;14.82;100.00;100443.25;6222072;23;20429;-81
2021/08/29 07:21:10;;;;;;;1.38;1.08;;;;;;;14.81;100.00;100445.06;6224687;23;20104;-82
2021/08/29 07:23:37;;;;;;;1.15;0.80;;;;;;;14.83;100.00;100445.81;6201599;23;20085;-82
2021/08/29 07:26:08;;;;;;;1.52;0.93;;;;;;;14.85;100.00;100441.25;6229010;22;20099;-80
2021/08/29 07:28:35;;;;;;;0.80;0.70;;;;;;;14.90;100.00;100446.31;6200306;23;20477;-82
2021/08/29 07:31:02;;;;;;;1.10;0.98;;;;;;;14.92;100.00;100444.41;6227863;23;20080;-80
2021/08/29 07:33:28;;;;;;;2.05;1.33;;;;;;;14.97;100.00;100432.47;6218716;22;20071;-80
2021/08/29 07:35:55;;;;;;;0.90;0.90;;;;;;;15.03;100.00;100432.09;6219710;23;20025;-80
2021/08/29 07:38:22;;;;;;;1.52;0.95;;;;;;;15.07;100.00;100433.59;6220675;23;20027;-81
2021/08/29 07:40:48;;;;;;;0.80;0.80;;;;;;;15.08;100.00;100437.13;6193963;23;20444;-80
2021/08/29 07:43:15;;;;;;;1.30;0.98;;;;;;;15.06;100.00;100433.69;6219335;23;20023;-80
2021/08/29 07:45:42;;;;;;;0.80;0.80;;;;;;;15.08;100.00;100443.31;6218451;23;20017;-81
2021/08/29 07:48:09;;;;;;;1.25;1.10;;;;;;;15.13;100.00;100442.13;6219819;23;20042;-80
2021/08/29 07:50:35;;;;;;;1.00;1.00;;;;;;;15.16;100.00;100440.13;6193740;23;20472;-80
2021/08/29 07:53:02;;;;;;;2.20;1.20;;;;;;;15.20;100.00;100449.66;6222300;23;20020;-83
2021/08/29 07:55:29;;;;;;;1.02;0.98;;;;;;;15.19;100.00;100442.59;6222401;23;20529;-82
2021/08/29 07:57:56;;;;;;;1.30;1.20;;;;;;;15.25;100.00;100444.03;6223194;23;20405;-81
2021/08/29 08:00:28;;;;;;;1.20;1.10;;;;;;;15.33;100.00;100447.91;6222650;23;20063;-84
2021/08/29 08:02:55;;;;;;;1.63;1.00;;;;;;;15.41;100.00;100442.06;6222390;23;20016;-81
2021/08/29 08:05:22;;;;;;;0.98;0.88;;;;;;;15.42;100.00;100441.13;6222743;23;20524;-83
2021/08/29 08:07:49;;;;;;;2.25;1.23;;;;;;;15.41;100.00;100439.41;6221584;23;20099;-81
2021/08/29 08:10:16;;;;;;;1.77;1.60;;;;;;;15.33;100.00;100433.69;6221987;23;20024;-82
2021/08/29 08:12:44;;;;;;;1.83;1.73;;;;;;;15.35;100.00;100439.78;6222877;23;20112;-81
2021/08/29 08:15:11;;;;;;;1.52;1.42;;;;;;;15.36;100.00;100433.50;6222256;23;20021;-82
2021/08/29 08:17:39;;;;;;;2.47;1.30;;;;;;;15.38;100.00;100439.59;6222960;23;20056;-82
2021/08/29 08:20:07;;;;;;;2.28;1.50;;;;;;;15.42;100.00;100435.78;6223632;23;20025;-82
2021/08/29 08:22:34;;;;;;;2.10;1.90;;;;;;;15.43;100.00;100438.31;6224509;23;20048;-82
2021/08/29 08:25:01;;;;;;;2.38;1.70;;;;;;;15.47;100.00;100438.97;6224740;23;20020;-82
2021/08/29 08:27:32;;;;;;;1.85;1.48;;;;;;;15.45;100.00;100440.88;6237628;23;20025;-81
2021/08/29 08:29:58;;;;;;;2.65;1.80;;;;;;;15.52;100.00;100444.88;6239487;23;20039;-82
2021/08/29 08:32:25;;;;;;;2.03;1.63;;;;;;;15.56;100.00;100448.22;6231921;22;20447;-83
2021/08/29 08:34:52;;;;;;;2.03;1.70;;;;;;;15.58;100.00;100444.50;6223094;23;20021;-82
2021/08/29 08:37:18;;;;;;;7.80;5.30;;;;;;;15.60;100.00;100455.91;6223169;23;20038;-82
2021/08/29 08:39:45;;;;;;;3.63;2.92;;;;;;;15.64;100.00;100449.41;6223959;23;20027;-82
2021/08/29 08:42:12;;;;;;;4.47;2.55;;;;;;;15.64;100.00;100445.88;6223425;23;20055;-82
2021/08/29 08:44:39;;;;;;;3.75;2.72;;;;;;;15.60;100.00;100453.25;6224149;23;20027;-81
2021/08/29 08:47:08;;;;;;;3.42;2.80;;;;;;;15.52;100.00;100450.22;6222969;23;20107;-82
2021/08/29 08:49:35;;;;;;;4.65;3.08;;;;;;;15.47;100.00;100455.00;6224307;23;20016;-82
2021/08/29 08:52:08;;;;;;;6.65;4.32;;;;;;;15.50;100.00;100454.78;6222150;23;20779;-82
2021/08/29 08:54:39;;;;;;;5.88;4.32;;;;;;;15.49;100.00;100446.88;6225507;23;20091;-82
2021/08/29 08:57:10;;;;;;;5.28;3.50;;;;;;;15.48;100.00;100445.16;6227119;23;20021;-82
2021/08/29 08:59:36;;;;;;;4.32;3.45;;;;;;;15.49;100.00;100444.22;6223965;23;20021;-82
2021/08/29 09:02:03;;;;;;;3.53;3.22;;;;;;;15.43;100.00;100446.31;6224307;23;20107;-82
2021/08/29 09:04:31;;;;;;;3.90;3.20;;;;;;;15.40;100.00;100448.34;6223530;23;20036;-82
2021/08/29 09:07:00;;;;;;;5.78;3.85;;;;;;;15.43;100.00;100442.78;6224811;23;20082;-82
2021/08/29 09:09:26;;;;;;;4.22;3.67;;;;;;;15.49;100.00;100444.22;6230180;23;20026;-82
2021/08/29 09:11:54;;;;;;;7.75;4.70;;;;;;;15.55;100.00;100443.81;6241351;23;20021;-82
2021/08/29 09:14:37;;;;;;;4.78;4.05;;;;;;;15.58;100.00;100446.31;6241822;23;20084;-80
2021/08/29 09:17:22;;;;;;;5.15;4.22;;;;;;;15.63;100.00;100444.19;6242253;23;20028;-82
2021/08/29 09:19:50;;;;;;;7.30;4.90;;;;;;;15.66;100.00;100450.19;6235601;23;20059;-82
2021/08/29 09:22:26;;;;;;;6.68;4.65;;;;;;;15.69;100.00;100449.97;6241329;23;20020;-82
2021/08/29 09:24:53;;;;;;;6.07;4.88;;;;;;;15.68;100.00;100450.06;6238639;23;20020;-82
2021/08/29 09:27:23;;;;;;;8.98;4.70;;;;;;;15.69;100.00;100443.78;6239036;23;20033;-82
2021/08/29 09:29:51;;;;;;;;;;;;;;;15.71;100.00;100445.38;6237629;23;20016;-82
2021/08/29 09:32:19;;;;;;;6.68;4.88;;;;;;;15.71;100.00;100453.41;6229953;23;19994;-81
2021/08/29 09:34:59;;;;;;;6.75;5.07;;;;;;;15.65;100.00;100445.78;6229359;23;20026;-83
2021/08/29 09:37:26;;;;;;;9.18;5.10;;;;;;;15.70;100.00;100453.50;6236685;23;20059;-82
2021/08/29 09:40:11;;;;;;;6.40;5.15;;;;;;;15.73;100.00;100448.81;6223593;23;20103;-83
2021/08/29 09:42:46;;;;;;;7.85;5.22;;;;;;;15.78;100.00;100446.66;6222756;23;20362;-83
2021/08/29 09:45:27;;;;;;;6.18;5.10;;;;;;;15.84;100.00;100445.41;6195709;23;20249;-83
2021/08/29 09:47:59;;;;;;;7.05;5.70;;;;;;;15.90;100.00;100447.63;6221220;23;20485;-83
2021/08/29 09:50:26;;;;;;;6.93;5.22;;;;;;;15.92;100.00;100444.88;6222038;23;20068;-83
2021/08/29 09:53:13;;;;;;;8.25;5.50;;;;;;;15.90;100.00;100442.31;6222189;23;20786;-83
2021/08/29 09:56:17;;;;;;;;;;;;;;;15.93;100.00;100446.59;6222877;23;20040;-82
2021/08/29 09:58:44;;;;;;;7.18;4.85;;;;;;;15.92;100.00;100450.22;6222914;23;19924;-83
2021/08/29 10:01:15;;;;;;;5.65;4.05;;;;;;;15.89;100.00;100445.09;6221400;23;20075;-82
2021/08/29 10:03:46;;;;;;;4.72;3.88;;;;;;;15.82;100.00;100436.66;6226056;23;20024;-80
2021/08/29 10:06:14;;;;;;;5.97;4.13;;;;;;;15.82;100.00;100439.31;6236901;23;20048;-80
2021/08/29 10:08:45;;;;;;;4.53;3.60;;;;;;;15.84;100.00;100431.19;6233488;23;20016;-84
2021/08/29 10:11:15;;;;;;;4.45;3.50;;;;;;;15.78;100.00;100432.47;6223132;23;20099;-83
2021/08/29 10:13:42;;;;;;;6.03;3.88;;;;;;;15.78;100.00;100437.81;6223450;23;20031;-83
2021/08/29 10:16:09;;;;;;;10.60;4.15;;;;;;;15.76;100.00;100432.56;6234560;23;20024;-83
2021/08/29 10:18:43;;;;;;;5.47;3.67;;;;;;;15.79;100.00;100431.50;6237158;23;20012;-80
2021/08/29 10:21:14;;;;;;;4.65;3.70;;;;;;;15.78;100.00;100432.47;6225574;23;20517;-83
2021/08/29 10:23:47;;;;;;;5.75;4.03;;;;;;;15.81;100.00;100432.25;6223366;23;20029;-82
2021/08/29 10:26:17;;;;;;;5.93;4.65;;;;;;;15.85;100.00;100436.44;6197483;23;20060;-82
2021/08/29 10:29:11;;;;;;;4.78;4.28;;;;;;;15.89;100.00;100434.44;6222290;23;20072;-82
2021/08/29 10:31:43;;;;;;;5.97;3.95;;;;;;;15.93;100.00;100431.41;6209878;23;20020;-81
2021/08/29 10:34:10;;;;;;;4.78;3.95;;;;;;;15.99;100.00;100438.16;6221151;23;20091;-80
2021/08/29 10:36:37;;;;;;;5.18;3.67;;;;;;;16.01;100.00;100439.78;6220317;23;20016;-80
2021/08/29 10:39:05;;;;;;;5.18;3.65;;;;;;;16.01;100.00;100437.09;6224493;23;20103;-81
2021/08/29 10:41:32;;;;;;;4.20;3.67;;;;;;;16.04;100.00;100436.91;6228542;23;20042;-80
2021/08/29 10:43:59;;;;;;;6.95;3.95;;;;;;;16.06;100.00;100431.41;6235117;23;20042;-80
2021/08/29 10:46:26;;;;;;;5.30;4.03;;;;;;;16.06;100.00;100442.09;6236616;23;20044;-80
2021/08/29 10:48:54;;;;;;;5.82;4.63;;;;;;;16.02;100.00;100430.81;6234805;23;20020;-79
2021/08/29 10:51:24;;;;;;;4.25;3.30;;;;;;;16.06;100.00;100428.75;6224520;23;20023;-81
2021/08/29 10:53:54;;;;;;;3.90;3.13;;;;;;;16.08;100.00;100430.34;6195194;23;20442;-81
2021/08/29 10:56:25;;;;;;;3.27;2.97;;;;;;;16.09;100.00;100425.88;6221445;23;20364;-83
2021/08/29 10:59:19;;;;;;;5.05;3.60;;;;;;;16.11;100.00;100429.28;6221575;23;20028;-81
2021/08/29 11:01:49;;;;;;;6.63;4.10;;;;;;;16.12;100.00;100420.31;6190980;23;20096;-81
2021/08/29 11:04:19;;;;;;;7.75;4.57;;;;;;;16.16;100.00;100434.34;6218767;23;20024;-80
2021/08/29 11:06:56;;;;;;;6.13;3.78;;;;;;;16.11;100.00;100424.81;6219359;23;20091;-81
2021/08/29 11:09:32;;;;;;;4.10;3.70;;;;;;;16.03;100.00;100419.16;6220047;23;20016;-80
2021/08/29 11:12:02;;;;;;;5.32;4.03;;;;;;;16.06;100.00;100426.09;6218879;23;20020;-81
2021/08/29 11:14:38;;;;;;;5.97;4.28;;;;;;;16.09;100.00;100420.53;6193310;23;20016;-81
2021/08/29 11:17:09;;;;;;;4.18;3.78;;;;;;;16.15;100.00;100425.47;6224154;23;20060;-81
2021/08/29 11:19:47;;;;;;;4.25;3.70;;;;;;;16.18;100.00;100414.56;6224656;23;20017;-81
2021/08/29 11:22:25;;;;;;;5.90;4.38;;;;;;;16.21;100.00;100410.84;6221998;23;20020;-81
2021/08/29 11:25:10;;;;;;;5.18;3.70;;;;;;;16.26;100.00;100412.19;6223583;23;20066;-81